sensor_id;sensor_type;location;lat;lon;timestamp;P1;durP1;ratioP1;P2;durP2;ratioP2
38397;SDS011;24179;52.094;4.408;2024-01-30T00:00:05;14.93;;;8.30;;
38397;SDS011;24179;52.094;4.408;2024-01-30T00:03:06;15.95;;;8.25;;
38397;SDS011;24179;52.094;4.408;2024-01-30T00:06:11;16.67;;;8.00;;
38397;SDS011;24179;52.094;4.408;2024-01-30T00:09:12;25.58;;;10.15;;
38397;SDS011;24179;52.094;4.408;2024-01-30T00:12:13;17.60;;;8.82;;
38397;SDS011;24179;52.094;4.408;2024-01-30T00:15:14;21.63;;;8.90;;
38397;SDS011;24179;52.094;4.408;2024-01-30T00:18:15;13.77;;;7.30;;
38397;SDS011;24179;52.094;4.408;2024-01-30T00:21:16;15.20;;;8.32;;
38397;SDS011;24179;52.094;4.408;2024-01-30T00:24:16;15.20;;;7.90;;
38397;SDS011;24179;52.094;4.408;2024-01-30T00:27:17;16.55;;;9.10;;
38397;SDS011;24179;52.094;4.408;2024-01-30T00:30:18;19.40;;;8.70;;
38397;SDS011;24179;52.094;4.408;2024-01-30T00:33:18;18.40;;;8.93;;
38397;SDS011;24179;52.094;4.408;2024-01-30T00:36:19;15.73;;;8.27;;
38397;SDS011;24179;52.094;4.408;2024-01-30T00:39:19;14.43;;;8.83;;
38397;SDS011;24179;52.094;4.408;2024-01-30T00:42:20;15.97;;;8.30;;
38397;SDS011;24179;52.094;4.408;2024-01-30T00:45:21;14.20;;;7.87;;
38397;SDS011;24179;52.094;4.408;2024-01-30T00:48:21;16.70;;;8.17;;
38397;SDS011;24179;52.094;4.408;2024-01-30T00:51:22;14.77;;;7.60;;
38397;SDS011;24179;52.094;4.408;2024-01-30T00:54:23;17.43;;;8.30;;
38397;SDS011;24179;52.094;4.408;2024-01-30T00:57:23;16.50;;;8.90;;
38397;SDS011;24179;52.094;4.408;2024-01-30T01:00:24;15.77;;;8.20;;
38397;SDS011;24179;52.094;4.408;2024-01-30T01:03:28;15.55;;;8.25;;
38397;SDS011;24179;52.094;4.408;2024-01-30T01:06:29;20.50;;;8.83;;
38397;SDS011;24179;52.094;4.408;2024-01-30T01:09:30;16.67;;;9.10;;
38397;SDS011;24179;52.094;4.408;2024-01-30T01:12:30;13.80;;;7.87;;
38397;SDS011;24179;52.094;4.408;2024-01-30T01:15:31;18.13;;;8.33;;
38397;SDS011;24179;52.094;4.408;2024-01-30T01:18:31;16.93;;;8.60;;
38397;SDS011;24179;52.094;4.408;2024-01-30T01:21:32;14.20;;;7.33;;
38397;SDS011;24179;52.094;4.408;2024-01-30T01:24:33;18.77;;;8.40;;
38397;SDS011;24179;52.094;4.408;2024-01-30T01:27:34;15.80;;;7.80;;
38397;SDS011;24179;52.094;4.408;2024-01-30T01:30:40;15.43;;;8.05;;
38397;SDS011;24179;52.094;4.408;2024-01-30T01:33:40;16.63;;;8.10;;
38397;SDS011;24179;52.094;4.408;2024-01-30T01:36:41;14.73;;;8.00;;
38397;SDS011;24179;52.094;4.408;2024-01-30T01:39:41;15.03;;;7.87;;
38397;SDS011;24179;52.094;4.408;2024-01-30T01:42:42;16.40;;;7.83;;
38397;SDS011;24179;52.094;4.408;2024-01-30T01:45:42;16.60;;;8.13;;
38397;SDS011;24179;52.094;4.408;2024-01-30T01:48:43;13.50;;;7.80;;
38397;SDS011;24179;52.094;4.408;2024-01-30T01:51:44;15.70;;;7.75;;
38397;SDS011;24179;52.094;4.408;2024-01-30T01:54:47;17.23;;;7.45;;
38397;SDS011;24179;52.094;4.408;2024-01-30T01:57:47;13.10;;;7.40;;
38397;SDS011;24179;52.094;4.408;2024-01-30T02:00:48;14.57;;;7.87;;
38397;SDS011;24179;52.094;4.408;2024-01-30T02:03:50;14.95;;;7.43;;
38397;SDS011;24179;52.094;4.408;2024-01-30T02:06:50;16.00;;;7.17;;
38397;SDS011;24179;52.094;4.408;2024-01-30T02:09:52;13.40;;;7.00;;
38397;SDS011;24179;52.094;4.408;2024-01-30T02:12:52;11.43;;;6.90;;
38397;SDS011;24179;52.094;4.408;2024-01-30T02:15:53;12.43;;;7.63;;
38397;SDS011;24179;52.094;4.408;2024-01-30T02:18:53;16.33;;;7.47;;
38397;SDS011;24179;52.094;4.408;2024-01-30T02:21:54;10.43;;;6.43;;
38397;SDS011;24179;52.094;4.408;2024-01-30T02:24:55;14.37;;;7.63;;
38397;SDS011;24179;52.094;4.408;2024-01-30T02:27:55;15.83;;;6.53;;
38397;SDS011;24179;52.094;4.408;2024-01-30T02:30:56;14.30;;;7.37;;
38397;SDS011;24179;52.094;4.408;2024-01-30T02:33:56;16.47;;;7.17;;
38397;SDS011;24179;52.094;4.408;2024-01-30T02:36:57;14.07;;;7.50;;
38397;SDS011;24179;52.094;4.408;2024-01-30T02:39:58;18.37;;;7.00;;
38397;SDS011;24179;52.094;4.408;2024-01-30T02:42:59;13.23;;;7.13;;
38397;SDS011;24179;52.094;4.408;2024-01-30T02:49:00;14.00;;;7.07;;
38397;SDS011;24179;52.094;4.408;2024-01-30T02:52:02;11.05;;;7.22;;
38397;SDS011;24179;52.094;4.408;2024-01-30T02:55:03;15.68;;;7.45;;
38397;SDS011;24179;52.094;4.408;2024-01-30T02:58:04;14.32;;;7.72;;
38397;SDS011;24179;52.094;4.408;2024-01-30T03:01:05;15.00;;;7.93;;
38397;SDS011;24179;52.094;4.408;2024-01-30T03:07:07;13.07;;;7.47;;
38397;SDS011;24179;52.094;4.408;2024-01-30T03:10:07;12.93;;;7.57;;
38397;SDS011;24179;52.094;4.408;2024-01-30T03:13:08;17.67;;;7.80;;
38397;SDS011;24179;52.094;4.408;2024-01-30T03:16:08;15.87;;;7.70;;
38397;SDS011;24179;52.094;4.408;2024-01-30T03:19:09;11.23;;;7.20;;
38397;SDS011;24179;52.094;4.408;2024-01-30T03:22:10;16.73;;;7.73;;
38397;SDS011;24179;52.094;4.408;2024-01-30T03:25:10;14.67;;;7.90;;
38397;SDS011;24179;52.094;4.408;2024-01-30T03:28:11;12.40;;;7.90;;
38397;SDS011;24179;52.094;4.408;2024-01-30T03:31:13;14.38;;;8.10;;
38397;SDS011;24179;52.094;4.408;2024-01-30T03:34:14;14.90;;;8.05;;
38397;SDS011;24179;52.094;4.408;2024-01-30T03:37:15;14.57;;;7.70;;
38397;SDS011;24179;52.094;4.408;2024-01-30T03:40:15;14.00;;;7.87;;
38397;SDS011;24179;52.094;4.408;2024-01-30T03:43:16;17.07;;;7.30;;
38397;SDS011;24179;52.094;4.408;2024-01-30T03:46:16;17.07;;;8.00;;
38397;SDS011;24179;52.094;4.408;2024-01-30T03:49:17;16.97;;;8.17;;
38397;SDS011;24179;52.094;4.408;2024-01-30T03:52:18;14.37;;;7.67;;
38397;SDS011;24179;52.094;4.408;2024-01-30T03:55:18;16.93;;;8.37;;
38397;SDS011;24179;52.094;4.408;2024-01-30T03:58:19;14.40;;;8.30;;
38397;SDS011;24179;52.094;4.408;2024-01-30T04:01:19;14.97;;;8.13;;
38397;SDS011;24179;52.094;4.408;2024-01-30T04:04:20;14.87;;;7.67;;
38397;SDS011;24179;52.094;4.408;2024-01-30T04:07:21;20.73;;;8.35;;
38397;SDS011;24179;52.094;4.408;2024-01-30T04:10:21;12.63;;;7.93;;
38397;SDS011;24179;52.094;4.408;2024-01-30T04:13:23;14.75;;;7.95;;
38397;SDS011;24179;52.094;4.408;2024-01-30T04:16:23;16.10;;;8.33;;
38397;SDS011;24179;52.094;4.408;2024-01-30T04:19:24;16.00;;;7.83;;
38397;SDS011;24179;52.094;4.408;2024-01-30T04:22:24;16.70;;;8.70;;
38397;SDS011;24179;52.094;4.408;2024-01-30T04:25:25;15.63;;;8.90;;
38397;SDS011;24179;52.094;4.408;2024-01-30T04:28:25;14.87;;;8.00;;
38397;SDS011;24179;52.094;4.408;2024-01-30T04:31:26;14.10;;;8.60;;
38397;SDS011;24179;52.094;4.408;2024-01-30T04:34:26;15.70;;;8.77;;
38397;SDS011;24179;52.094;4.408;2024-01-30T04:37:27;16.40;;;8.43;;
38397;SDS011;24179;52.094;4.408;2024-01-30T04:40:28;16.07;;;8.67;;
38397;SDS011;24179;52.094;4.408;2024-01-30T04:43:28;15.50;;;8.27;;
38397;SDS011;24179;52.094;4.408;2024-01-30T04:46:29;14.47;;;7.83;;
38397;SDS011;24179;52.094;4.408;2024-01-30T04:49:29;17.17;;;8.40;;
38397;SDS011;24179;52.094;4.408;2024-01-30T04:52:30;14.27;;;8.50;;
38397;SDS011;24179;52.094;4.408;2024-01-30T04:55:30;17.50;;;7.80;;
38397;SDS011;24179;52.094;4.408;2024-01-30T04:58:31;13.67;;;7.80;;
38397;SDS011;24179;52.094;4.408;2024-01-30T05:01:32;13.47;;;8.10;;
38397;SDS011;24179;52.094;4.408;2024-01-30T05:04:32;14.17;;;7.73;;
38397;SDS011;24179;52.094;4.408;2024-01-30T05:07:33;12.73;;;8.00;;
38397;SDS011;24179;52.094;4.408;2024-01-30T05:10:34;18.17;;;8.73;;
38397;SDS011;24179;52.094;4.408;2024-01-30T05:13:34;14.63;;;8.30;;
38397;SDS011;24179;52.094;4.408;2024-01-30T05:16:35;12.50;;;7.37;;
38397;SDS011;24179;52.094;4.408;2024-01-30T05:19:36;12.77;;;8.07;;
38397;SDS011;24179;52.094;4.408;2024-01-30T05:22:36;14.77;;;8.30;;
38397;SDS011;24179;52.094;4.408;2024-01-30T05:25:37;16.73;;;8.40;;
38397;SDS011;24179;52.094;4.408;2024-01-30T05:28:37;14.07;;;8.17;;
38397;SDS011;24179;52.094;4.408;2024-01-30T05:31:38;17.03;;;8.67;;
38397;SDS011;24179;52.094;4.408;2024-01-30T05:34:38;12.57;;;8.17;;
38397;SDS011;24179;52.094;4.408;2024-01-30T05:37:39;13.27;;;8.23;;
38397;SDS011;24179;52.094;4.408;2024-01-30T05:40:40;14.87;;;8.07;;
38397;SDS011;24179;52.094;4.408;2024-01-30T05:43:40;17.47;;;7.50;;
38397;SDS011;24179;52.094;4.408;2024-01-30T05:46:42;14.73;;;8.68;;
38397;SDS011;24179;52.094;4.408;2024-01-30T05:49:42;13.10;;;8.13;;
38397;SDS011;24179;52.094;4.408;2024-01-30T05:52:43;13.00;;;7.70;;
38397;SDS011;24179;52.094;4.408;2024-01-30T05:55:43;17.97;;;8.13;;
38397;SDS011;24179;52.094;4.408;2024-01-30T05:58:44;17.77;;;8.33;;
38397;SDS011;24179;52.094;4.408;2024-01-30T06:01:45;15.27;;;8.37;;
38397;SDS011;24179;52.094;4.408;2024-01-30T06:04:47;13.20;;;7.70;;
38397;SDS011;24179;52.094;4.408;2024-01-30T06:07:47;15.30;;;7.50;;
38397;SDS011;24179;52.094;4.408;2024-01-30T06:10:48;14.40;;;7.97;;
38397;SDS011;24179;52.094;4.408;2024-01-30T06:13:49;14.47;;;7.47;;
38397;SDS011;24179;52.094;4.408;2024-01-30T06:16:49;16.80;;;8.23;;
38397;SDS011;24179;52.094;4.408;2024-01-30T06:19:50;17.67;;;8.20;;
38397;SDS011;24179;52.094;4.408;2024-01-30T06:22:50;22.13;;;8.67;;
38397;SDS011;24179;52.094;4.408;2024-01-30T06:25:51;15.23;;;7.47;;
38397;SDS011;24179;52.094;4.408;2024-01-30T06:28:51;17.80;;;7.97;;
38397;SDS011;24179;52.094;4.408;2024-01-30T06:31:52;15.53;;;8.00;;
38397;SDS011;24179;52.094;4.408;2024-01-30T06:34:53;13.70;;;8.00;;
38397;SDS011;24179;52.094;4.408;2024-01-30T06:37:53;16.57;;;7.83;;
38397;SDS011;24179;52.094;4.408;2024-01-30T06:40:54;16.63;;;7.57;;
38397;SDS011;24179;52.094;4.408;2024-01-30T06:43:54;13.77;;;7.93;;
38397;SDS011;24179;52.094;4.408;2024-01-30T06:46:55;13.43;;;8.00;;
38397;SDS011;24179;52.094;4.408;2024-01-30T06:49:56;16.40;;;8.00;;
38397;SDS011;24179;52.094;4.408;2024-01-30T06:52:57;17.33;;;7.43;;
38397;SDS011;24179;52.094;4.408;2024-01-30T06:55:57;16.67;;;8.47;;
38397;SDS011;24179;52.094;4.408;2024-01-30T06:58:58;21.77;;;8.57;;
38397;SDS011;24179;52.094;4.408;2024-01-30T07:01:59;17.08;;;8.23;;
38397;SDS011;24179;52.094;4.408;2024-01-30T07:05:00;15.30;;;7.40;;
38397;SDS011;24179;52.094;4.408;2024-01-30T07:08:00;17.20;;;8.13;;
38397;SDS011;24179;52.094;4.408;2024-01-30T07:11:01;15.37;;;8.10;;
38397;SDS011;24179;52.094;4.408;2024-01-30T07:14:01;23.77;;;8.50;;
38397;SDS011;24179;52.094;4.408;2024-01-30T07:17:05;18.05;;;7.90;;
38397;SDS011;24179;52.094;4.408;2024-01-30T07:20:06;18.15;;;8.38;;
38397;SDS011;24179;52.094;4.408;2024-01-30T07:23:07;16.00;;;8.20;;
38397;SDS011;24179;52.094;4.408;2024-01-30T07:26:08;21.67;;;8.40;;
38397;SDS011;24179;52.094;4.408;2024-01-30T07:29:09;17.92;;;7.88;;
38397;SDS011;24179;52.094;4.408;2024-01-30T07:32:10;15.20;;;7.63;;
38397;SDS011;24179;52.094;4.408;2024-01-30T07:35:10;18.03;;;7.80;;
38397;SDS011;24179;52.094;4.408;2024-01-30T07:38:11;16.48;;;7.80;;
38397;SDS011;24179;52.094;4.408;2024-01-30T07:41:11;18.53;;;8.67;;
38397;SDS011;24179;52.094;4.408;2024-01-30T07:44:12;16.50;;;7.67;;
38397;SDS011;24179;52.094;4.408;2024-01-30T07:47:13;17.00;;;9.23;;
38397;SDS011;24179;52.094;4.408;2024-01-30T07:50:13;16.37;;;8.17;;
38397;SDS011;24179;52.094;4.408;2024-01-30T07:53:14;15.97;;;7.93;;
38397;SDS011;24179;52.094;4.408;2024-01-30T07:56:15;18.08;;;8.30;;
38397;SDS011;24179;52.094;4.408;2024-01-30T07:59:16;19.65;;;9.50;;
38397;SDS011;24179;52.094;4.408;2024-01-30T08:02:16;15.37;;;8.17;;
38397;SDS011;24179;52.094;4.408;2024-01-30T08:05:17;15.23;;;8.68;;
38397;SDS011;24179;52.094;4.408;2024-01-30T08:08:18;18.40;;;8.37;;
38397;SDS011;24179;52.094;4.408;2024-01-30T08:11:21;20.63;;;8.30;;
38397;SDS011;24179;52.094;4.408;2024-01-30T08:14:26;23.05;;;9.25;;
38397;SDS011;24179;52.094;4.408;2024-01-30T08:17:28;19.33;;;8.73;;
38397;SDS011;24179;52.094;4.408;2024-01-30T08:20:28;20.87;;;9.50;;
38397;SDS011;24179;52.094;4.408;2024-01-30T08:23:29;20.30;;;9.00;;
38397;SDS011;24179;52.094;4.408;2024-01-30T08:26:29;17.17;;;8.50;;
38397;SDS011;24179;52.094;4.408;2024-01-30T08:29:31;19.13;;;9.07;;
38397;SDS011;24179;52.094;4.408;2024-01-30T08:32:31;19.13;;;9.33;;
38397;SDS011;24179;52.094;4.408;2024-01-30T08:35:32;19.77;;;9.85;;
38397;SDS011;24179;52.094;4.408;2024-01-30T08:38:33;19.80;;;10.00;;
38397;SDS011;24179;52.094;4.408;2024-01-30T08:41:34;15.77;;;9.77;;
38397;SDS011;24179;52.094;4.408;2024-01-30T08:44:34;15.80;;;8.60;;
38397;SDS011;24179;52.094;4.408;2024-01-30T08:47:35;18.37;;;9.47;;
38397;SDS011;24179;52.094;4.408;2024-01-30T08:50:35;19.93;;;10.37;;
38397;SDS011;24179;52.094;4.408;2024-01-30T08:53:36;22.77;;;10.63;;
38397;SDS011;24179;52.094;4.408;2024-01-30T08:56:37;20.93;;;9.30;;
38397;SDS011;24179;52.094;4.408;2024-01-30T08:59:37;21.13;;;10.47;;
38397;SDS011;24179;52.094;4.408;2024-01-30T09:02:38;19.63;;;10.10;;
38397;SDS011;24179;52.094;4.408;2024-01-30T09:05:38;21.23;;;10.30;;
38397;SDS011;24179;52.094;4.408;2024-01-30T09:08:39;20.17;;;10.27;;
38397;SDS011;24179;52.094;4.408;2024-01-30T09:11:40;18.07;;;10.07;;
38397;SDS011;24179;52.094;4.408;2024-01-30T09:14:40;21.48;;;11.05;;
38397;SDS011;24179;52.094;4.408;2024-01-30T09:17:41;21.50;;;11.20;;
38397;SDS011;24179;52.094;4.408;2024-01-30T09:20:42;21.53;;;11.17;;
38397;SDS011;24179;52.094;4.408;2024-01-30T09:23:42;17.73;;;8.63;;
38397;SDS011;24179;52.094;4.408;2024-01-30T09:26:43;24.93;;;8.90;;
38397;SDS011;24179;52.094;4.408;2024-01-30T09:29:43;21.57;;;8.67;;
38397;SDS011;24179;52.094;4.408;2024-01-30T09:32:44;20.97;;;8.00;;
38397;SDS011;24179;52.094;4.408;2024-01-30T09:35:44;16.97;;;6.10;;
38397;SDS011;24179;52.094;4.408;2024-01-30T09:38:45;12.00;;;6.17;;
38397;SDS011;24179;52.094;4.408;2024-01-30T09:41:49;16.40;;;5.00;;
38397;SDS011;24179;52.094;4.408;2024-01-30T09:47:58;9.23;;;4.20;;
38397;SDS011;24179;52.094;4.408;2024-01-30T09:50:59;15.90;;;3.70;;
38397;SDS011;24179;52.094;4.408;2024-01-30T09:54:01;12.50;;;3.50;;
38397;SDS011;24179;52.094;4.408;2024-01-30T09:57:03;9.15;;;3.05;;
38397;SDS011;24179;52.094;4.408;2024-01-30T10:03:08;7.07;;;3.08;;
38397;SDS011;24179;52.094;4.408;2024-01-30T10:09:10;6.53;;;2.90;;
38397;SDS011;24179;52.094;4.408;2024-01-30T10:12:11;9.27;;;3.37;;
38397;SDS011;24179;52.094;4.408;2024-01-30T10:15:12;7.47;;;3.28;;
38397;SDS011;24179;52.094;4.408;2024-01-30T10:18:14;7.88;;;2.88;;
38397;SDS011;24179;52.094;4.408;2024-01-30T10:21:14;5.63;;;2.90;;
38397;SDS011;24179;52.094;4.408;2024-01-30T10:24:16;11.25;;;3.33;;
38397;SDS011;24179;52.094;4.408;2024-01-30T10:27:23;9.88;;;2.90;;
38397;SDS011;24179;52.094;4.408;2024-01-30T10:30:29;13.02;;;3.50;;
38397;SDS011;24179;52.094;4.408;2024-01-30T10:33:30;10.60;;;2.47;;
38397;SDS011;24179;52.094;4.408;2024-01-30T10:36:30;7.23;;;3.00;;
38397;SDS011;24179;52.094;4.408;2024-01-30T10:39:39;4.53;;;2.80;;
38397;SDS011;24179;52.094;4.408;2024-01-30T10:42:42;13.27;;;3.15;;
38397;SDS011;24179;52.094;4.408;2024-01-30T10:45:44;7.18;;;2.85;;
38397;SDS011;24179;52.094;4.408;2024-01-30T10:48:56;8.75;;;3.15;;
38397;SDS011;24179;52.094;4.408;2024-01-30T10:51:58;11.73;;;3.28;;
38397;SDS011;24179;52.094;4.408;2024-01-30T10:55:00;8.88;;;3.28;;
38397;SDS011;24179;52.094;4.408;2024-01-30T10:58:01;9.98;;;3.42;;
38397;SDS011;24179;52.094;4.408;2024-01-30T11:01:02;9.20;;;3.30;;
38397;SDS011;24179;52.094;4.408;2024-01-30T11:04:03;10.77;;;3.17;;
38397;SDS011;24179;52.094;4.408;2024-01-30T11:07:17;8.23;;;3.08;;
38397;SDS011;24179;52.094;4.408;2024-01-30T11:10:18;12.05;;;3.50;;
38397;SDS011;24179;52.094;4.408;2024-01-30T11:13:19;10.63;;;3.53;;
38397;SDS011;24179;52.094;4.408;2024-01-30T11:16:19;10.30;;;3.27;;
38397;SDS011;24179;52.094;4.408;2024-01-30T11:19:24;7.72;;;3.65;;
38397;SDS011;24179;52.094;4.408;2024-01-30T11:22:30;15.65;;;3.60;;
38397;SDS011;24179;52.094;4.408;2024-01-30T11:25:30;8.32;;;3.50;;
38397;SDS011;24179;52.094;4.408;2024-01-30T11:28:33;15.68;;;3.53;;
38397;SDS011;24179;52.094;4.408;2024-01-30T11:31:37;10.25;;;3.85;;
38397;SDS011;24179;52.094;4.408;2024-01-30T11:34:39;15.17;;;3.10;;
38397;SDS011;24179;52.094;4.408;2024-01-30T11:37:41;14.05;;;3.67;;
38397;SDS011;24179;52.094;4.408;2024-01-30T11:40:45;11.27;;;3.42;;
38397;SDS011;24179;52.094;4.408;2024-01-30T11:43:52;13.65;;;3.67;;
38397;SDS011;24179;52.094;4.408;2024-01-30T11:46:53;15.25;;;3.67;;
38397;SDS011;24179;52.094;4.408;2024-01-30T11:49:54;8.40;;;3.60;;
38397;SDS011;24179;52.094;4.408;2024-01-30T11:52:55;11.87;;;3.57;;
38397;SDS011;24179;52.094;4.408;2024-01-30T11:55:55;12.00;;;3.60;;
38397;SDS011;24179;52.094;4.408;2024-01-30T11:58:56;18.13;;;4.33;;
38397;SDS011;24179;52.094;4.408;2024-01-30T12:01:56;10.77;;;3.70;;
38397;SDS011;24179;52.094;4.408;2024-01-30T12:04:57;11.87;;;3.70;;
38397;SDS011;24179;52.094;4.408;2024-01-30T12:07:59;13.83;;;3.97;;
38397;SDS011;24179;52.094;4.408;2024-01-30T12:11:00;7.72;;;3.40;;
38397;SDS011;24179;52.094;4.408;2024-01-30T12:14:05;13.48;;;4.30;;
38397;SDS011;24179;52.094;4.408;2024-01-30T12:17:06;16.00;;;4.07;;
38397;SDS011;24179;52.094;4.408;2024-01-30T12:20:09;10.05;;;3.92;;
38397;SDS011;24179;52.094;4.408;2024-01-30T12:23:11;11.65;;;3.92;;
38397;SDS011;24179;52.094;4.408;2024-01-30T12:26:12;12.43;;;5.32;;
38397;SDS011;24179;52.094;4.408;2024-01-30T12:29:14;11.10;;;3.43;;
38397;SDS011;24179;52.094;4.408;2024-01-30T12:32:15;11.27;;;3.80;;
38397;SDS011;24179;52.094;4.408;2024-01-30T12:35:17;13.90;;;4.10;;
38397;SDS011;24179;52.094;4.408;2024-01-30T12:38:19;12.05;;;3.83;;
38397;SDS011;24179;52.094;4.408;2024-01-30T12:41:20;14.20;;;3.97;;
38397;SDS011;24179;52.094;4.408;2024-01-30T12:44:20;17.10;;;4.47;;
38397;SDS011;24179;52.094;4.408;2024-01-30T12:47:21;14.07;;;4.27;;
38397;SDS011;24179;52.094;4.408;2024-01-30T12:50:22;16.13;;;4.10;;
38397;SDS011;24179;52.094;4.408;2024-01-30T12:53:22;8.23;;;3.93;;
38397;SDS011;24179;52.094;4.408;2024-01-30T12:56:23;11.37;;;3.93;;
38397;SDS011;24179;52.094;4.408;2024-01-30T12:59:24;10.83;;;3.77;;
38397;SDS011;24179;52.094;4.408;2024-01-30T13:02:24;10.57;;;3.70;;
38397;SDS011;24179;52.094;4.408;2024-01-30T13:08:27;10.47;;;4.47;;
38397;SDS011;24179;52.094;4.408;2024-01-30T13:11:27;13.20;;;3.67;;
38397;SDS011;24179;52.094;4.408;2024-01-30T13:14:28;10.07;;;3.50;;
38397;SDS011;24179;52.094;4.408;2024-01-30T13:17:29;15.30;;;4.07;;
38397;SDS011;24179;52.094;4.408;2024-01-30T13:20:29;11.77;;;3.97;;
38397;SDS011;24179;52.094;4.408;2024-01-30T13:23:30;7.33;;;4.17;;
38397;SDS011;24179;52.094;4.408;2024-01-30T13:26:33;8.50;;;4.47;;
38397;SDS011;24179;52.094;4.408;2024-01-30T13:29:34;7.65;;;4.43;;
38397;SDS011;24179;52.094;4.408;2024-01-30T13:32:35;6.83;;;3.90;;
38397;SDS011;24179;52.094;4.408;2024-01-30T13:35:36;10.07;;;3.88;;
38397;SDS011;24179;52.094;4.408;2024-01-30T13:38:37;9.60;;;4.10;;
38397;SDS011;24179;52.094;4.408;2024-01-30T13:41:38;13.23;;;4.25;;
38397;SDS011;24179;52.094;4.408;2024-01-30T13:44:38;10.00;;;4.27;;
38397;SDS011;24179;52.094;4.408;2024-01-30T13:47:39;12.87;;;3.80;;
38397;SDS011;24179;52.094;4.408;2024-01-30T13:50:39;8.60;;;4.60;;
38397;SDS011;24179;52.094;4.408;2024-01-30T13:53:40;8.07;;;4.40;;
38397;SDS011;24179;52.094;4.408;2024-01-30T13:56:40;11.77;;;4.83;;
38397;SDS011;24179;52.094;4.408;2024-01-30T13:59:41;9.10;;;4.17;;
38397;SDS011;24179;52.094;4.408;2024-01-30T14:02:42;8.70;;;4.10;;
38397;SDS011;24179;52.094;4.408;2024-01-30T14:05:43;7.25;;;4.15;;
38397;SDS011;24179;52.094;4.408;2024-01-30T14:08:44;7.97;;;4.05;;
38397;SDS011;24179;52.094;4.408;2024-01-30T14:11:44;6.40;;;4.30;;
38397;SDS011;24179;52.094;4.408;2024-01-30T14:14:45;6.30;;;3.90;;
38397;SDS011;24179;52.094;4.408;2024-01-30T14:17:45;9.50;;;4.40;;
38397;SDS011;24179;52.094;4.408;2024-01-30T14:20:48;5.93;;;3.70;;
38397;SDS011;24179;52.094;4.408;2024-01-30T14:23:49;5.43;;;3.90;;
38397;SDS011;24179;52.094;4.408;2024-01-30T14:26:49;8.17;;;4.20;;
38397;SDS011;24179;52.094;4.408;2024-01-30T14:29:50;7.72;;;4.50;;
38397;SDS011;24179;52.094;4.408;2024-01-30T14:32:51;7.43;;;4.00;;
38397;SDS011;24179;52.094;4.408;2024-01-30T14:35:52;9.37;;;3.67;;
38397;SDS011;24179;52.094;4.408;2024-01-30T14:38:53;12.93;;;4.63;;
38397;SDS011;24179;52.094;4.408;2024-01-30T14:41:54;6.72;;;4.40;;
38397;SDS011;24179;52.094;4.408;2024-01-30T14:44:55;8.80;;;4.10;;
38397;SDS011;24179;52.094;4.408;2024-01-30T14:47:56;9.33;;;4.37;;
38397;SDS011;24179;52.094;4.408;2024-01-30T14:50:57;9.55;;;4.30;;
38397;SDS011;24179;52.094;4.408;2024-01-30T14:53:57;8.70;;;4.17;;
38397;SDS011;24179;52.094;4.408;2024-01-30T14:56:59;11.73;;;5.32;;
38397;SDS011;24179;52.094;4.408;2024-01-30T14:59:59;9.37;;;5.00;;
38397;SDS011;24179;52.094;4.408;2024-01-30T15:03:00;14.43;;;4.70;;
38397;SDS011;24179;52.094;4.408;2024-01-30T15:06:00;6.27;;;4.73;;
38397;SDS011;24179;52.094;4.408;2024-01-30T15:09:01;10.10;;;4.80;;
38397;SDS011;24179;52.094;4.408;2024-01-30T15:12:02;9.00;;;4.80;;
38397;SDS011;24179;52.094;4.408;2024-01-30T15:15:04;6.40;;;4.50;;
38397;SDS011;24179;52.094;4.408;2024-01-30T15:18:07;8.93;;;4.78;;
38397;SDS011;24179;52.094;4.408;2024-01-30T15:21:11;12.95;;;4.70;;
38397;SDS011;24179;52.094;4.408;2024-01-30T15:24:11;8.00;;;4.70;;
38397;SDS011;24179;52.094;4.408;2024-01-30T15:27:14;12.02;;;4.97;;
38397;SDS011;24179;52.094;4.408;2024-01-30T15:30:15;11.90;;;4.85;;
38397;SDS011;24179;52.094;4.408;2024-01-30T15:33:16;10.30;;;4.20;;
38397;SDS011;24179;52.094;4.408;2024-01-30T15:36:16;11.53;;;4.43;;
38397;SDS011;24179;52.094;4.408;2024-01-30T15:39:17;8.40;;;4.57;;
38397;SDS011;24179;52.094;4.408;2024-01-30T15:42:18;13.20;;;5.20;;
38397;SDS011;24179;52.094;4.408;2024-01-30T15:45:18;10.43;;;5.10;;
38397;SDS011;24179;52.094;4.408;2024-01-30T15:48:19;11.38;;;5.15;;
38397;SDS011;24179;52.094;4.408;2024-01-30T15:51:20;11.63;;;5.40;;
38397;SDS011;24179;52.094;4.408;2024-01-30T15:54:20;13.70;;;5.00;;
38397;SDS011;24179;52.094;4.408;2024-01-30T15:57:22;8.48;;;4.40;;
38397;SDS011;24179;52.094;4.408;2024-01-30T16:00:22;12.67;;;4.03;;
38397;SDS011;24179;52.094;4.408;2024-01-30T16:03:23;14.23;;;4.27;;
38397;SDS011;24179;52.094;4.408;2024-01-30T16:06:23;13.17;;;4.20;;
38397;SDS011;24179;52.094;4.408;2024-01-30T16:09:24;14.97;;;4.40;;
38397;SDS011;24179;52.094;4.408;2024-01-30T16:12:25;13.80;;;3.50;;
38397;SDS011;24179;52.094;4.408;2024-01-30T16:15:25;11.97;;;3.37;;
38397;SDS011;24179;52.094;4.408;2024-01-30T16:18:26;16.33;;;3.50;;
38397;SDS011;24179;52.094;4.408;2024-01-30T16:21:30;14.73;;;3.53;;
38397;SDS011;24179;52.094;4.408;2024-01-30T16:24:32;10.93;;;3.35;;
38397;SDS011;24179;52.094;4.408;2024-01-30T16:27:33;9.43;;;3.00;;
38397;SDS011;24179;52.094;4.408;2024-01-30T16:30:33;10.57;;;3.17;;
38397;SDS011;24179;52.094;4.408;2024-01-30T16:33:34;16.67;;;3.10;;
38397;SDS011;24179;52.094;4.408;2024-01-30T16:36:34;13.23;;;3.33;;
38397;SDS011;24179;52.094;4.408;2024-01-30T16:39:35;14.07;;;2.70;;
38397;SDS011;24179;52.094;4.408;2024-01-30T16:42:36;12.37;;;3.07;;
38397;SDS011;24179;52.094;4.408;2024-01-30T16:45:36;12.73;;;2.77;;
38397;SDS011;24179;52.094;4.408;2024-01-30T16:48:37;18.50;;;3.20;;
38397;SDS011;24179;52.094;4.408;2024-01-30T16:51:37;13.47;;;3.10;;
38397;SDS011;24179;52.094;4.408;2024-01-30T16:54:38;13.57;;;3.00;;
38397;SDS011;24179;52.094;4.408;2024-01-30T16:57:39;13.77;;;2.83;;
38397;SDS011;24179;52.094;4.408;2024-01-30T17:00:39;16.20;;;3.43;;
38397;SDS011;24179;52.094;4.408;2024-01-30T17:03:40;16.23;;;2.80;;
38397;SDS011;24179;52.094;4.408;2024-01-30T17:06:42;12.63;;;3.55;;
38397;SDS011;24179;52.094;4.408;2024-01-30T17:09:43;16.38;;;3.67;;
38397;SDS011;24179;52.094;4.408;2024-01-30T17:12:43;12.40;;;2.70;;
38397;SDS011;24179;52.094;4.408;2024-01-30T17:15:44;14.48;;;3.40;;
38397;SDS011;24179;52.094;4.408;2024-01-30T17:18:45;17.87;;;3.10;;
38397;SDS011;24179;52.094;4.408;2024-01-30T17:21:45;19.83;;;3.27;;
38397;SDS011;24179;52.094;4.408;2024-01-30T17:24:46;16.57;;;2.97;;
38397;SDS011;24179;52.094;4.408;2024-01-30T17:27:47;14.20;;;3.03;;
38397;SDS011;24179;52.094;4.408;2024-01-30T17:30:48;15.10;;;3.08;;
38397;SDS011;24179;52.094;4.408;2024-01-30T17:33:49;15.57;;;3.30;;
38397;SDS011;24179;52.094;4.408;2024-01-30T17:36:50;13.52;;;4.05;;
38397;SDS011;24179;52.094;4.408;2024-01-30T17:39:51;13.67;;;3.03;;
38397;SDS011;24179;52.094;4.408;2024-01-30T17:42:51;14.67;;;3.20;;
38397;SDS011;24179;52.094;4.408;2024-01-30T17:45:52;14.67;;;3.13;;
38397;SDS011;24179;52.094;4.408;2024-01-30T17:48:53;11.00;;;2.70;;
38397;SDS011;24179;52.094;4.408;2024-01-30T17:51:53;14.93;;;3.17;;
38397;SDS011;24179;52.094;4.408;2024-01-30T17:54:54;13.73;;;2.50;;
38397;SDS011;24179;52.094;4.408;2024-01-30T17:57:54;19.33;;;3.23;;
38397;SDS011;24179;52.094;4.408;2024-01-30T18:00:55;14.55;;;3.08;;
38397;SDS011;24179;52.094;4.408;2024-01-30T18:03:57;14.88;;;3.00;;
38397;SDS011;24179;52.094;4.408;2024-01-30T18:06:58;15.50;;;3.00;;
38397;SDS011;24179;52.094;4.408;2024-01-30T18:09:58;14.63;;;2.43;;
38397;SDS011;24179;52.094;4.408;2024-01-30T18:12:59;7.83;;;3.13;;